createdAt,value
2022-10-06T00:00:22.433Z,147.20
2022-10-06T00:02:51.478Z,62.17
2022-10-06T00:05:20.567Z,42.53
2022-10-06T00:07:50.093Z,45.65
2022-10-06T00:10:19.565Z,37.60
2022-10-06T00:12:52.904Z,32.50
2022-10-06T00:15:26.212Z,33.85
2022-10-06T00:17:56.213Z,32.22
2022-10-06T00:20:26.093Z,36.03
2022-10-06T00:22:56.409Z,33.20
2022-10-06T00:25:28.251Z,41.97
2022-10-06T00:27:58.929Z,35.72
2022-10-06T00:30:31.265Z,50.83
2022-10-06T00:33:03.148Z,53.47
2022-10-06T00:35:35.669Z,52.40
2022-10-06T00:38:06.240Z,50.75
2022-10-06T00:40:35.441Z,36.92
2022-10-06T00:43:07.606Z,26.15
2022-10-06T00:45:43.812Z,30.05
2022-10-06T00:48:20.060Z,24.73
2022-10-06T00:50:49.761Z,20.85
2022-10-06T00:53:18.949Z,21.40
2022-10-06T00:55:48.388Z,16.58
2022-10-06T00:58:19.548Z,16.80
2022-10-06T01:00:50.613Z,25.33
2022-10-06T01:03:25.651Z,17.38
2022-10-06T01:05:55.895Z,18.92
2022-10-06T01:08:26.068Z,18.13
2022-10-06T01:10:55.448Z,19.15
2022-10-06T01:13:27.665Z,16.77
2022-10-06T01:16:03.625Z,15.95
2022-10-06T01:18:34.408Z,16.42
2022-10-06T01:21:11.982Z,22.75
2022-10-06T01:23:42.548Z,22.10
2022-10-06T01:26:14.601Z,22.00
2022-10-06T01:28:43.716Z,22.00
2022-10-06T01:31:12.999Z,16.95
2022-10-06T01:33:44.736Z,20.05
2022-10-06T01:36:14.652Z,20.58
2022-10-06T01:38:46.106Z,23.48
2022-10-06T01:41:15.412Z,22.95
2022-10-06T01:43:44.513Z,23.17
2022-10-06T01:46:13.643Z,19.63
2022-10-06T01:48:43.433Z,15.75
2022-10-06T01:51:17.101Z,19.33
2022-10-06T01:53:47.555Z,19.60
2022-10-06T01:56:16.630Z,23.45
2022-10-06T01:58:45.770Z,15.52
2022-10-06T02:01:14.999Z,23.63
2022-10-06T02:03:44.282Z,25.08
2022-10-06T02:06:13.316Z,19.02
2022-10-06T02:08:44.872Z,21.33
2022-10-06T02:11:15.769Z,28.27
2022-10-06T02:13:45.684Z,18.52
2022-10-06T02:16:14.938Z,17.58
2022-10-06T02:18:45.464Z,17.25
2022-10-06T02:21:19.690Z,12.68
2022-10-06T02:23:48.935Z,15.77
2022-10-06T02:26:20.074Z,15.90
2022-10-06T02:28:51.408Z,16.60
2022-10-06T02:31:24.095Z,21.15
2022-10-06T02:33:54.133Z,23.50
2022-10-06T02:36:25.226Z,16.60
2022-10-06T02:38:54.565Z,17.77
2022-10-06T02:41:25.456Z,14.75
2022-10-06T02:43:55.260Z,16.52
2022-10-06T02:46:25.192Z,17.25
2022-10-06T02:48:54.879Z,12.82
2022-10-06T02:51:25.179Z,13.20
2022-10-06T02:53:54.563Z,19.63
2022-10-06T02:56:27.165Z,14.85
2022-10-06T02:58:56.567Z,21.83
2022-10-06T03:01:32.408Z,18.60
2022-10-06T03:04:08.305Z,13.27
2022-10-06T03:06:37.404Z,20.20
2022-10-06T03:09:19.377Z,16.77
2022-10-06T03:11:49.912Z,17.58
2022-10-06T03:14:26.740Z,21.70
2022-10-06T03:16:57.352Z,32.05
2022-10-06T03:19:28.972Z,28.38
2022-10-06T03:21:58.019Z,22.90
2022-10-06T03:24:35.659Z,16.88
2022-10-06T03:27:06.282Z,19.52
2022-10-06T03:29:35.561Z,34.35
2022-10-06T03:32:06.103Z,15.15
2022-10-06T03:34:36.065Z,18.38
2022-10-06T03:37:07.783Z,19.00
2022-10-06T03:39:36.840Z,20.17
2022-10-06T03:42:07.390Z,20.17
2022-10-06T03:44:36.991Z,46.33
2022-10-06T03:47:07.131Z,28.25
2022-10-06T03:49:36.680Z,40.78
2022-10-06T03:52:05.705Z,37.75
2022-10-06T03:54:38.722Z,25.50
2022-10-06T03:57:09.429Z,26.90
2022-10-06T03:59:39.586Z,31.02
2022-10-06T04:02:09.140Z,30.48
2022-10-06T04:04:39.756Z,27.17
2022-10-06T04:07:13.128Z,25.80
2022-10-06T04:09:42.648Z,25.27
2022-10-06T04:12:14.935Z,31.52
2022-10-06T04:14:46.818Z,25.83
2022-10-06T04:17:16.049Z,24.67
2022-10-06T04:19:45.745Z,20.92
2022-10-06T04:22:15.646Z,24.30
2022-10-06T04:24:44.869Z,17.67
2022-10-06T04:27:30.741Z,22.92
2022-10-06T04:30:13.219Z,21.17
2022-10-06T04:32:43.154Z,20.30
2022-10-06T04:35:12.996Z,23.65
2022-10-06T04:37:42.139Z,19.58
2022-10-06T04:40:12.205Z,20.75
2022-10-06T04:42:43.100Z,18.50
2022-10-06T04:45:15.949Z,23.38
2022-10-06T04:47:45.967Z,24.48
2022-10-06T04:50:15.203Z,19.27
2022-10-06T04:53:04.139Z,26.65
2022-10-06T04:55:33.814Z,19.35
2022-10-06T04:58:04.381Z,26.88
2022-10-06T05:00:33.513Z,34.40
2022-10-06T05:03:03.218Z,32.65
2022-10-06T05:05:32.561Z,23.98
2022-10-06T05:08:01.688Z,28.25
2022-10-06T05:10:30.873Z,37.55
2022-10-06T05:13:00.094Z,22.80
2022-10-06T05:15:31.677Z,26.13
2022-10-06T05:18:00.809Z,22.38
2022-10-06T05:20:29.862Z,25.42
2022-10-06T05:22:58.958Z,26.42
2022-10-06T05:25:28.094Z,18.00
2022-10-06T05:27:57.408Z,21.92
2022-10-06T05:30:26.630Z,16.30
2022-10-06T05:32:57.105Z,23.23
2022-10-06T05:35:27.019Z,23.00
2022-10-06T05:37:56.104Z,24.65
2022-10-06T05:40:25.268Z,19.08
2022-10-06T05:42:56.809Z,21.17
2022-10-06T05:45:26.102Z,17.38
2022-10-06T05:47:57.079Z,27.58
2022-10-06T05:50:26.097Z,20.13
2022-10-06T05:52:56.532Z,23.65
2022-10-06T05:55:26.362Z,20.25
2022-10-06T05:57:56.265Z,24.20
2022-10-06T06:00:25.677Z,23.73
2022-10-06T06:02:56.162Z,22.13
2022-10-06T06:05:25.336Z,21.40
2022-10-06T06:07:54.379Z,17.42
2022-10-06T06:10:23.464Z,21.60
2022-10-06T06:12:52.497Z,19.58
2022-10-06T06:15:57.608Z,22.50
2022-10-06T06:18:28.664Z,21.08
2022-10-06T06:20:59.421Z,23.88
2022-10-06T06:23:33.564Z,22.85
2022-10-06T06:26:06.466Z,24.38
2022-10-06T06:28:40.362Z,23.77
2022-10-06T06:31:15.101Z,26.58
2022-10-06T06:33:53.097Z,33.00
2022-10-06T06:36:26.344Z,37.85
2022-10-06T06:38:57.823Z,36.88
2022-10-06T06:41:29.834Z,35.72
2022-10-06T06:44:08.317Z,37.92
2022-10-06T06:46:43.107Z,28.15
2022-10-06T06:49:19.074Z,23.70
2022-10-06T06:51:54.329Z,27.60
2022-10-06T06:54:27.726Z,26.60
2022-10-06T06:59:34.113Z,31.35
2022-10-06T07:02:03.543Z,28.08
2022-10-06T07:04:37.422Z,29.80
2022-10-06T07:07:08.292Z,27.20
2022-10-06T07:09:39.298Z,24.70
2022-10-06T07:12:15.469Z,21.77
2022-10-06T07:15:09.850Z,25.60
2022-10-06T07:18:00.033Z,30.67
2022-10-06T07:20:49.426Z,25.48
2022-10-06T07:23:39.704Z,31.38
2022-10-06T07:26:13.719Z,24.10
2022-10-06T07:28:43.113Z,29.08
2022-10-06T07:31:13.727Z,22.98
2022-10-06T07:33:42.882Z,25.50
2022-10-06T07:36:15.473Z,22.85
2022-10-06T07:38:47.840Z,19.75
2022-10-06T07:41:19.720Z,18.38
2022-10-06T07:43:56.081Z,17.67
2022-10-06T07:46:26.745Z,22.52
2022-10-06T07:51:34.801Z,20.02
2022-10-06T07:54:05.312Z,26.33
2022-10-06T07:56:52.917Z,18.90
2022-10-06T07:59:22.630Z,18.02
2022-10-06T08:01:52.933Z,17.23
2022-10-06T08:04:21.972Z,15.43
2022-10-06T08:06:52.381Z,18.30
2022-10-06T08:09:22.219Z,17.90
2022-10-06T08:11:51.306Z,16.13
2022-10-06T08:14:20.398Z,19.13
2022-10-06T08:16:49.454Z,14.80
2022-10-06T08:19:19.690Z,14.10
2022-10-06T08:21:48.729Z,14.90
2022-10-06T08:24:19.730Z,18.30
2022-10-06T08:26:48.737Z,17.35
2022-10-06T08:29:17.768Z,14.15
2022-10-06T08:31:46.844Z,16.15
2022-10-06T08:34:15.975Z,15.32
2022-10-06T08:37:02.115Z,12.02
2022-10-06T08:39:35.373Z,11.70
2022-10-06T08:42:04.655Z,16.67
2022-10-06T08:44:39.964Z,11.68
2022-10-06T08:47:18.604Z,13.15
2022-10-06T08:49:52.174Z,15.43
2022-10-06T08:52:46.914Z,10.50
2022-10-06T08:55:33.962Z,15.25
2022-10-06T08:58:22.839Z,13.80
2022-10-06T09:00:56.930Z,13.15
2022-10-06T09:03:31.205Z,11.93
2022-10-06T09:06:13.439Z,13.65
2022-10-06T09:08:53.194Z,14.07
2022-10-06T09:11:45.378Z,13.07
2022-10-06T09:14:21.084Z,13.77
2022-10-06T09:16:55.395Z,14.60
2022-10-06T09:19:35.249Z,12.48
2022-10-06T09:22:07.888Z,16.15
2022-10-06T09:24:46.987Z,10.60
2022-10-06T09:27:21.879Z,9.05
2022-10-06T09:29:52.285Z,19.17
2022-10-06T09:32:23.797Z,12.30
2022-10-06T09:34:55.450Z,12.32
2022-10-06T09:37:25.150Z,12.07
2022-10-06T09:39:55.690Z,12.70
2022-10-06T09:42:30.122Z,11.80
2022-10-06T09:45:02.562Z,11.48
2022-10-06T09:47:46.016Z,16.42
2022-10-06T09:50:23.003Z,14.73
2022-10-06T09:53:18.584Z,11.18
2022-10-06T09:55:54.934Z,14.15
2022-10-06T09:58:34.681Z,13.95
2022-10-06T10:01:07.917Z,8.90
2022-10-06T10:04:15.655Z,10.77
2022-10-06T10:06:41.813Z,13.10
2022-10-06T10:09:27.283Z,8.32
2022-10-06T10:12:28.307Z,10.75
2022-10-06T10:15:04.129Z,12.23
2022-10-06T10:17:49.368Z,13.63
2022-10-06T10:20:34.056Z,12.35
2022-10-06T10:23:22.863Z,13.85
2022-10-06T10:26:27.444Z,19.13
2022-10-06T10:29:17.050Z,12.90
2022-10-06T10:32:12.236Z,10.23
2022-10-06T10:35:11.741Z,9.15
2022-10-06T10:37:46.753Z,9.90
2022-10-06T10:40:31.331Z,7.82
2022-10-06T10:43:10.662Z,6.15
2022-10-06T10:45:47.269Z,8.55
2022-10-06T10:48:24.389Z,11.07
2022-10-06T10:51:02.933Z,9.63
2022-10-06T10:53:42.863Z,6.78
2022-10-06T10:56:16.219Z,9.45
2022-10-06T10:58:48.861Z,6.90
2022-10-06T11:01:31.127Z,6.00
2022-10-06T11:04:02.570Z,7.50
2022-10-06T11:06:55.432Z,5.68
2022-10-06T11:09:32.317Z,7.78
2022-10-06T11:12:18.597Z,7.90
2022-10-06T11:14:57.406Z,7.90
2022-10-06T11:17:45.292Z,10.57
2022-10-06T11:20:40.285Z,7.00
2022-10-06T11:23:33.750Z,5.53
2022-10-06T11:26:15.172Z,8.82
2022-10-06T11:28:51.826Z,9.68
2022-10-06T11:31:30.991Z,5.63
2022-10-06T11:34:03.285Z,6.63
2022-10-06T11:36:50.215Z,7.40
2022-10-06T11:39:33.278Z,9.70
2022-10-06T11:42:15.435Z,8.98
2022-10-06T11:44:51.806Z,7.60
2022-10-06T11:47:35.006Z,3.73
2022-10-06T11:50:42.773Z,7.07
2022-10-06T11:53:28.911Z,8.63
2022-10-06T11:56:47.069Z,6.50
2022-10-06T11:59:34.201Z,4.53
2022-10-06T12:02:42.625Z,6.40
2022-10-06T12:08:37.000Z,5.70
2022-10-06T12:11:49.418Z,7.28
2022-10-06T12:17:37.390Z,8.55
2022-10-06T12:20:20.227Z,5.15
2022-10-06T12:22:56.828Z,6.60
2022-10-06T12:25:41.048Z,5.55
2022-10-06T12:28:37.600Z,5.45
2022-10-06T12:31:39.868Z,4.85
2022-10-06T12:34:58.148Z,2.88
2022-10-06T12:37:42.598Z,3.60
2022-10-06T12:40:57.820Z,4.38
2022-10-06T12:44:03.917Z,6.03
2022-10-06T12:46:51.069Z,5.90
2022-10-06T12:49:44.292Z,4.78
2022-10-06T12:52:44.596Z,3.38
2022-10-06T12:55:43.586Z,3.90
2022-10-06T12:58:29.893Z,5.22
2022-10-06T13:01:02.459Z,4.07
2022-10-06T13:03:32.291Z,5.70
2022-10-06T13:06:04.872Z,4.10
2022-10-06T13:08:36.708Z,2.95
2022-10-06T13:11:21.885Z,4.03
2022-10-06T13:13:54.384Z,4.10
2022-10-06T13:16:26.381Z,4.85
2022-10-06T13:18:58.921Z,6.28
2022-10-06T13:21:30.124Z,4.75
2022-10-06T13:23:59.378Z,6.07
2022-10-06T13:26:32.737Z,9.43
2022-10-06T13:29:03.168Z,6.18
2022-10-06T13:31:35.228Z,6.03
2022-10-06T13:34:07.981Z,5.72
2022-10-06T13:36:39.981Z,6.63
2022-10-06T13:39:15.359Z,7.20
2022-10-06T13:41:47.620Z,4.95
2022-10-06T13:44:36.097Z,4.13
2022-10-06T13:47:15.373Z,6.25
2022-10-06T13:49:53.199Z,4.38
2022-10-06T13:52:31.511Z,3.50
2022-10-06T13:55:02.116Z,5.53
2022-10-06T13:57:43.461Z,4.10
2022-10-06T14:00:25.470Z,3.15
2022-10-06T14:02:58.903Z,5.03
2022-10-06T14:05:32.823Z,4.00
2022-10-06T14:08:04.093Z,4.95
2022-10-06T14:10:53.429Z,5.75
2022-10-06T14:13:26.550Z,4.90
2022-10-06T14:16:01.686Z,5.50
2022-10-06T14:18:38.288Z,5.55
2022-10-06T14:21:28.874Z,4.40
2022-10-06T14:23:58.330Z,9.27
2022-10-06T14:26:30.240Z,5.00
2022-10-06T14:29:02.405Z,3.20
2022-10-06T14:31:34.197Z,3.38
2022-10-06T14:34:04.685Z,5.30
2022-10-06T14:36:36.901Z,3.85
2022-10-06T14:39:07.811Z,4.60
2022-10-06T14:41:36.908Z,4.93
2022-10-06T14:44:09.663Z,3.40
2022-10-06T14:46:42.334Z,6.53
2022-10-06T14:49:14.240Z,4.90
2022-10-06T14:51:47.470Z,3.42
2022-10-06T14:54:16.806Z,4.05
2022-10-06T14:56:45.852Z,5.28
2022-10-06T14:59:18.221Z,5.72
2022-10-06T15:01:49.964Z,6.80
2022-10-06T15:04:20.945Z,7.25
2022-10-06T15:07:07.593Z,5.57
2022-10-06T15:09:36.865Z,2.92
2022-10-06T15:12:06.293Z,7.78
2022-10-06T15:14:40.069Z,4.18
2022-10-06T15:17:10.788Z,5.05
2022-10-06T15:19:40.401Z,6.13
2022-10-06T15:22:10.469Z,7.63
2022-10-06T15:24:39.537Z,3.15
2022-10-06T15:27:26.114Z,7.07
2022-10-06T15:29:57.468Z,10.63
2022-10-06T15:32:28.098Z,5.82
2022-10-06T15:35:00.277Z,6.85
2022-10-06T15:37:29.482Z,7.20
2022-10-06T15:39:58.825Z,4.25
2022-10-06T15:42:27.900Z,8.70
2022-10-06T15:44:57.425Z,5.20
2022-10-06T15:47:29.351Z,4.70
2022-10-06T15:49:58.748Z,5.13
2022-10-06T15:52:33.946Z,6.63
2022-10-06T15:55:03.602Z,7.93
2022-10-06T15:57:32.651Z,9.07
2022-10-06T16:00:01.639Z,6.80
2022-10-06T16:02:35.617Z,6.75
2022-10-06T16:05:21.844Z,9.93
2022-10-06T16:07:51.084Z,7.45
2022-10-06T16:10:20.249Z,8.13
2022-10-06T16:12:49.227Z,6.97
2022-10-06T16:15:18.307Z,10.13
2022-10-06T16:17:48.916Z,8.45
2022-10-06T16:20:18.304Z,8.68
2022-10-06T16:22:47.307Z,8.45
2022-10-06T16:25:16.629Z,11.20
2022-10-06T16:27:45.883Z,13.35
2022-10-06T16:30:15.433Z,9.77
2022-10-06T16:32:44.624Z,7.57
2022-10-06T16:35:20.610Z,21.33
2022-10-06T16:37:50.113Z,18.02
2022-10-06T16:40:19.232Z,17.83
2022-10-06T16:42:48.435Z,8.80
2022-10-06T16:45:17.537Z,13.98
2022-10-06T16:47:46.672Z,5.05
2022-10-06T16:50:17.380Z,11.68
2022-10-06T16:52:48.592Z,7.63
2022-10-06T16:55:17.764Z,9.88
2022-10-06T16:57:46.895Z,6.97
2022-10-06T17:00:18.414Z,5.43
2022-10-06T17:02:47.400Z,13.45
2022-10-06T17:05:18.197Z,5.00
2022-10-06T17:07:47.239Z,8.25
2022-10-06T17:10:20.445Z,8.00
2022-10-06T17:12:49.850Z,13.75
2022-10-06T17:15:18.888Z,11.50
2022-10-06T17:17:48.057Z,11.57
2022-10-06T17:20:18.591Z,9.95
2022-10-06T17:22:48.638Z,13.32
2022-10-06T17:25:22.355Z,11.45
2022-10-06T17:27:51.539Z,12.10
2022-10-06T17:30:20.638Z,13.57
2022-10-06T17:32:49.869Z,11.57
2022-10-06T17:35:23.528Z,7.40
2022-10-06T17:37:52.544Z,12.68
2022-10-06T17:40:26.027Z,9.50
2022-10-06T17:42:55.698Z,18.70
2022-10-06T17:45:25.082Z,15.60
2022-10-06T17:47:55.358Z,13.52
2022-10-06T17:50:26.051Z,26.20
2022-10-06T17:52:55.100Z,18.90
2022-10-06T17:55:24.315Z,14.60
2022-10-06T17:57:53.559Z,13.48
2022-10-06T18:00:22.661Z,13.73
2022-10-06T18:02:54.868Z,20.50
2022-10-06T18:05:28.468Z,22.92
2022-10-06T18:08:01.892Z,21.48
2022-10-06T18:10:48.316Z,25.75
2022-10-06T18:13:17.376Z,18.65
2022-10-06T18:15:46.840Z,16.02
2022-10-06T18:18:16.181Z,24.73
2022-10-06T18:20:46.943Z,18.05
2022-10-06T18:23:16.705Z,17.33
2022-10-06T18:25:46.116Z,14.80
2022-10-06T18:28:15.370Z,14.77
2022-10-06T18:30:51.382Z,15.57
2022-10-06T18:36:15.029Z,23.15
2022-10-06T18:38:47.197Z,22.95
2022-10-06T18:41:18.977Z,23.73
2022-10-06T18:43:48.122Z,22.27
2022-10-06T18:46:36.127Z,26.13
2022-10-06T18:51:46.186Z,17.27
2022-10-06T18:54:18.916Z,19.23
2022-10-06T18:56:50.090Z,23.23
2022-10-06T18:59:22.974Z,23.75
2022-10-06T19:01:52.683Z,15.43
2022-10-06T19:04:23.716Z,19.35
2022-10-06T19:06:56.656Z,17.40
2022-10-06T19:09:27.085Z,20.27
2022-10-06T19:11:58.954Z,19.73
2022-10-06T19:14:32.180Z,14.52
2022-10-06T19:17:04.100Z,16.25
2022-10-06T19:19:35.132Z,20.95
2022-10-06T19:22:07.554Z,16.55
2022-10-06T19:24:39.102Z,16.30
2022-10-06T19:27:12.183Z,19.85
2022-10-06T19:29:45.792Z,20.00
2022-10-06T19:32:17.986Z,19.63
2022-10-06T19:34:48.540Z,16.58
2022-10-06T19:37:18.984Z,16.70
2022-10-06T19:39:50.275Z,17.45
2022-10-06T19:42:50.083Z,26.38
2022-10-06T19:45:21.082Z,17.15
2022-10-06T19:47:51.419Z,17.98
2022-10-06T19:50:24.148Z,16.83
2022-10-06T19:52:54.713Z,17.98
2022-10-06T19:55:24.940Z,19.52
2022-10-06T19:57:54.039Z,17.23
2022-10-06T20:00:23.239Z,20.88
2022-10-06T20:02:52.258Z,17.30
2022-10-06T20:05:21.967Z,22.15
2022-10-06T20:07:51.046Z,18.42
2022-10-06T20:10:21.671Z,19.33
2022-10-06T20:12:51.027Z,17.95
2022-10-06T20:15:20.839Z,21.17
2022-10-06T20:17:50.048Z,19.60
2022-10-06T20:20:20.570Z,16.45
2022-10-06T20:22:49.830Z,16.63
2022-10-06T20:25:19.055Z,18.73
2022-10-06T20:27:50.353Z,23.90
2022-10-06T20:30:19.688Z,18.75
2022-10-06T20:32:48.826Z,21.05
2022-10-06T20:35:19.797Z,22.10
2022-10-06T20:37:48.897Z,28.98
2022-10-06T20:40:35.350Z,17.48
2022-10-06T20:43:05.896Z,17.20
2022-10-06T20:45:34.972Z,24.10
2022-10-06T20:48:06.272Z,21.17
2022-10-06T20:50:35.349Z,16.08
2022-10-06T20:53:04.475Z,20.88
2022-10-06T20:55:33.531Z,17.02
2022-10-06T20:58:02.568Z,16.63
2022-10-06T21:00:33.039Z,14.07
2022-10-06T21:03:03.106Z,17.35
2022-10-06T21:05:33.139Z,11.20
2022-10-06T21:08:02.233Z,16.40
2022-10-06T21:10:32.049Z,15.95
2022-10-06T21:13:01.315Z,21.00
2022-10-06T21:15:36.556Z,26.67
2022-10-06T21:18:07.079Z,16.13
2022-10-06T21:20:36.582Z,20.98
2022-10-06T21:23:10.718Z,23.35
2022-10-06T21:25:41.049Z,23.27
2022-10-06T21:28:10.155Z,22.50
2022-10-06T21:30:42.358Z,18.38
2022-10-06T21:33:14.637Z,16.38
2022-10-06T21:35:43.670Z,22.33
2022-10-06T21:38:13.234Z,25.50
2022-10-06T21:40:42.340Z,28.63
2022-10-06T21:43:11.327Z,28.45
2022-10-06T21:45:42.243Z,27.65
2022-10-06T21:48:11.252Z,27.38
2022-10-06T21:50:40.395Z,22.58
2022-10-06T21:53:09.559Z,19.25
2022-10-06T21:55:38.611Z,15.63
2022-10-06T21:58:07.596Z,19.40
2022-10-06T22:00:36.751Z,16.73
2022-10-06T22:03:09.082Z,16.52
2022-10-06T22:05:39.831Z,17.58
2022-10-06T22:08:08.859Z,16.70
2022-10-06T22:10:37.941Z,14.82
2022-10-06T22:13:07.169Z,14.15
2022-10-06T22:15:37.458Z,17.05
2022-10-06T22:18:07.892Z,15.27
2022-10-06T22:20:36.985Z,18.58
2022-10-06T22:23:05.989Z,18.00
2022-10-06T22:25:35.015Z,21.75
2022-10-06T22:28:08.729Z,20.58
2022-10-06T22:30:37.827Z,21.17
2022-10-06T22:33:08.283Z,22.05
2022-10-06T22:35:37.491Z,16.40
2022-10-06T22:38:06.707Z,14.18
2022-10-06T22:40:35.790Z,19.63
2022-10-06T22:43:04.926Z,17.92
2022-10-06T22:45:34.041Z,16.33
2022-10-06T22:48:03.207Z,17.73
2022-10-06T22:50:33.763Z,17.48
2022-10-06T22:53:02.965Z,17.70
2022-10-06T22:55:32.097Z,14.25
2022-10-06T22:58:01.063Z,11.38
2022-10-06T23:00:30.162Z,13.02
2022-10-06T23:02:59.346Z,15.95
2022-10-06T23:05:28.861Z,14.05
2022-10-06T23:07:59.431Z,9.18
2022-10-06T23:10:29.728Z,14.80
2022-10-06T23:12:59.997Z,14.13
2022-10-06T23:15:29.759Z,13.95
2022-10-06T23:17:58.726Z,12.50
2022-10-06T23:20:27.766Z,16.55
2022-10-06T23:22:58.158Z,19.05
2022-10-06T23:25:27.514Z,13.48
2022-10-06T23:27:56.698Z,15.02
2022-10-06T23:30:25.755Z,19.05
2022-10-06T23:32:54.768Z,17.30
2022-10-06T23:35:23.949Z,18.88
2022-10-06T23:37:53.039Z,16.63
2022-10-06T23:40:23.499Z,18.17
2022-10-06T23:42:52.515Z,17.25
2022-10-06T23:45:21.548Z,15.40
2022-10-06T23:47:50.510Z,19.83
2022-10-06T23:50:19.686Z,22.13
2022-10-06T23:52:48.720Z,18.83
2022-10-06T23:55:17.674Z,17.35
2022-10-06T23:57:48.035Z,18.65
